sensor_id;sensor_type;location;lat;lon;timestamp;temperature;humidity
19206;DHT22;59358;52.134;5.596;2023-05-10T00:01:22;13.90;99.90
19206;DHT22;59358;52.134;5.596;2023-05-10T00:03:49;13.80;99.90
19206;DHT22;59358;52.134;5.596;2023-05-10T00:06:16;13.80;99.90
19206;DHT22;59358;52.134;5.596;2023-05-10T00:08:44;13.80;99.90
19206;DHT22;59358;52.134;5.596;2023-05-10T00:11:12;13.70;99.90
19206;DHT22;59358;52.134;5.596;2023-05-10T00:13:38;13.70;99.90
19206;DHT22;59358;52.134;5.596;2023-05-10T00:16:05;13.70;99.90
19206;DHT22;59358;52.134;5.596;2023-05-10T00:18:33;13.70;99.90
19206;DHT22;59358;52.134;5.596;2023-05-10T00:20:59;13.70;99.90
19206;DHT22;59358;52.134;5.596;2023-05-10T00:23:26;13.70;99.90
19206;DHT22;59358;52.134;5.596;2023-05-10T00:25:53;13.70;99.90
19206;DHT22;59358;52.134;5.596;2023-05-10T00:28:21;13.70;99.90
19206;DHT22;59358;52.134;5.596;2023-05-10T00:30:48;13.70;99.90
19206;DHT22;59358;52.134;5.596;2023-05-10T00:33:15;13.60;99.90
19206;DHT22;59358;52.134;5.596;2023-05-10T00:35:41;13.70;99.90
19206;DHT22;59358;52.134;5.596;2023-05-10T00:38:08;13.60;99.90
19206;DHT22;59358;52.134;5.596;2023-05-10T00:40:35;13.70;99.90
19206;DHT22;59358;52.134;5.596;2023-05-10T00:43:02;13.70;99.90
19206;DHT22;59358;52.134;5.596;2023-05-10T00:45:31;13.80;99.90
19206;DHT22;59358;52.134;5.596;2023-05-10T00:47:59;13.70;99.90
19206;DHT22;59358;52.134;5.596;2023-05-10T00:50:28;13.70;99.90
19206;DHT22;59358;52.134;5.596;2023-05-10T00:52:55;13.60;99.90
19206;DHT22;59358;52.134;5.596;2023-05-10T00:55:22;13.60;99.90
19206;DHT22;59358;52.134;5.596;2023-05-10T00:57:49;13.60;99.90
19206;DHT22;59358;52.134;5.596;2023-05-10T01:00:16;13.60;99.90
19206;DHT22;59358;52.134;5.596;2023-05-10T01:02:46;13.60;99.90
19206;DHT22;59358;52.134;5.596;2023-05-10T01:05:13;13.60;99.90
19206;DHT22;59358;52.134;5.596;2023-05-10T01:07:40;13.50;99.90
19206;DHT22;59358;52.134;5.596;2023-05-10T01:10:08;13.50;99.90
19206;DHT22;59358;52.134;5.596;2023-05-10T01:12:38;13.50;99.90
19206;DHT22;59358;52.134;5.596;2023-05-10T01:15:07;13.50;99.90
19206;DHT22;59358;52.134;5.596;2023-05-10T01:17:36;13.60;99.90
19206;DHT22;59358;52.134;5.596;2023-05-10T01:20:07;13.50;99.90
19206;DHT22;59358;52.134;5.596;2023-05-10T01:23:04;13.60;99.90
19206;DHT22;59358;52.134;5.596;2023-05-10T01:26:07;13.60;99.90
19206;DHT22;59358;52.134;5.596;2023-05-10T01:29:14;13.60;99.90
19206;DHT22;59358;52.134;5.596;2023-05-10T01:32:15;13.60;99.90
19206;DHT22;59358;52.134;5.596;2023-05-10T01:34:50;13.50;99.90
19206;DHT22;59358;52.134;5.596;2023-05-10T01:37:22;13.40;99.90
19206;DHT22;59358;52.134;5.596;2023-05-10T01:39:57;13.60;99.90
19206;DHT22;59358;52.134;5.596;2023-05-10T01:42:29;13.50;99.90
19206;DHT22;59358;52.134;5.596;2023-05-10T01:45:07;13.50;99.90
19206;DHT22;59358;52.134;5.596;2023-05-10T01:47:41;13.60;99.90
19206;DHT22;59358;52.134;5.596;2023-05-10T01:50:15;13.60;99.90
19206;DHT22;59358;52.134;5.596;2023-05-10T01:52:51;13.60;99.90
19206;DHT22;59358;52.134;5.596;2023-05-10T01:55:20;13.60;99.90
19206;DHT22;59358;52.134;5.596;2023-05-10T01:57:52;13.70;99.90
19206;DHT22;59358;52.134;5.596;2023-05-10T02:03:46;13.70;99.90
19206;DHT22;59358;52.134;5.596;2023-05-10T02:06:15;13.70;99.90
19206;DHT22;59358;52.134;5.596;2023-05-10T02:08:43;13.70;99.90
19206;DHT22;59358;52.134;5.596;2023-05-10T02:11:13;13.70;99.90
19206;DHT22;59358;52.134;5.596;2023-05-10T02:13:41;13.70;99.90
19206;DHT22;59358;52.134;5.596;2023-05-10T02:16:09;13.60;99.90
19206;DHT22;59358;52.134;5.596;2023-05-10T02:18:36;13.60;99.90
19206;DHT22;59358;52.134;5.596;2023-05-10T02:21:04;13.60;99.90
19206;DHT22;59358;52.134;5.596;2023-05-10T02:23:31;13.70;99.90
19206;DHT22;59358;52.134;5.596;2023-05-10T02:26:01;13.60;99.90
19206;DHT22;59358;52.134;5.596;2023-05-10T02:28:29;13.60;99.90
19206;DHT22;59358;52.134;5.596;2023-05-10T02:30:57;13.70;99.90
19206;DHT22;59358;52.134;5.596;2023-05-10T02:33:24;13.60;99.90
19206;DHT22;59358;52.134;5.596;2023-05-10T02:35:52;13.60;99.90
19206;DHT22;59358;52.134;5.596;2023-05-10T02:38:22;13.70;99.90
19206;DHT22;59358;52.134;5.596;2023-05-10T02:40:50;13.60;99.90
19206;DHT22;59358;52.134;5.596;2023-05-10T02:43:18;13.60;99.90
19206;DHT22;59358;52.134;5.596;2023-05-10T02:45:47;13.60;99.90
19206;DHT22;59358;52.134;5.596;2023-05-10T02:48:15;13.50;99.90
19206;DHT22;59358;52.134;5.596;2023-05-10T02:51:19;13.60;99.90
19206;DHT22;59358;52.134;5.596;2023-05-10T02:53:49;13.60;99.90
19206;DHT22;59358;52.134;5.596;2023-05-10T02:56:23;13.70;99.90
19206;DHT22;59358;52.134;5.596;2023-05-10T02:58:51;13.60;99.90
19206;DHT22;59358;52.134;5.596;2023-05-10T03:01:18;13.60;99.90
19206;DHT22;59358;52.134;5.596;2023-05-10T03:03:45;13.60;99.90
19206;DHT22;59358;52.134;5.596;2023-05-10T03:06:12;13.60;99.90
19206;DHT22;59358;52.134;5.596;2023-05-10T03:08:39;13.50;99.90
19206;DHT22;59358;52.134;5.596;2023-05-10T03:11:23;13.40;99.90
19206;DHT22;59358;52.134;5.596;2023-05-10T03:14:00;13.40;99.90
19206;DHT22;59358;52.134;5.596;2023-05-10T03:16:34;13.40;99.90
19206;DHT22;59358;52.134;5.596;2023-05-10T03:19:14;13.30;99.90
19206;DHT22;59358;52.134;5.596;2023-05-10T03:21:47;13.30;99.90
19206;DHT22;59358;52.134;5.596;2023-05-10T03:24:16;13.40;99.90
19206;DHT22;59358;52.134;5.596;2023-05-10T03:26:47;13.30;99.90
19206;DHT22;59358;52.134;5.596;2023-05-10T03:29:15;13.40;99.90
19206;DHT22;59358;52.134;5.596;2023-05-10T03:31:42;13.20;99.90
19206;DHT22;59358;52.134;5.596;2023-05-10T03:34:09;13.20;99.90
19206;DHT22;59358;52.134;5.596;2023-05-10T03:36:36;13.20;99.90
19206;DHT22;59358;52.134;5.596;2023-05-10T03:39:03;13.10;99.90
19206;DHT22;59358;52.134;5.596;2023-05-10T03:41:30;13.10;99.90
19206;DHT22;59358;52.134;5.596;2023-05-10T03:43:58;13.10;99.90
19206;DHT22;59358;52.134;5.596;2023-05-10T03:46:25;13.10;99.90
19206;DHT22;59358;52.134;5.596;2023-05-10T03:48:51;13.00;99.90
19206;DHT22;59358;52.134;5.596;2023-05-10T03:51:18;13.00;99.90
19206;DHT22;59358;52.134;5.596;2023-05-10T03:53:45;13.00;99.90
19206;DHT22;59358;52.134;5.596;2023-05-10T03:56:12;12.90;99.90
19206;DHT22;59358;52.134;5.596;2023-05-10T03:58:39;12.90;99.90
19206;DHT22;59358;52.134;5.596;2023-05-10T04:01:08;13.00;99.90
19206;DHT22;59358;52.134;5.596;2023-05-10T04:03:35;13.00;99.90
19206;DHT22;59358;52.134;5.596;2023-05-10T04:06:02;12.90;99.90
19206;DHT22;59358;52.134;5.596;2023-05-10T04:08:29;12.90;99.90
19206;DHT22;59358;52.134;5.596;2023-05-10T04:11:05;12.90;99.90
19206;DHT22;59358;52.134;5.596;2023-05-10T04:13:32;13.00;99.90
19206;DHT22;59358;52.134;5.596;2023-05-10T04:15:59;12.80;99.90
19206;DHT22;59358;52.134;5.596;2023-05-10T04:18:27;12.80;99.90
19206;DHT22;59358;52.134;5.596;2023-05-10T04:20:54;12.70;99.90
19206;DHT22;59358;52.134;5.596;2023-05-10T04:23:20;12.90;99.90
19206;DHT22;59358;52.134;5.596;2023-05-10T04:25:47;12.90;99.90
19206;DHT22;59358;52.134;5.596;2023-05-10T04:28:14;12.90;99.90
19206;DHT22;59358;52.134;5.596;2023-05-10T04:30:41;12.90;99.90
19206;DHT22;59358;52.134;5.596;2023-05-10T04:33:08;13.00;99.90
19206;DHT22;59358;52.134;5.596;2023-05-10T04:35:36;13.00;99.90
19206;DHT22;59358;52.134;5.596;2023-05-10T04:38:03;12.90;99.90
19206;DHT22;59358;52.134;5.596;2023-05-10T04:40:29;12.90;99.90
19206;DHT22;59358;52.134;5.596;2023-05-10T04:42:56;13.00;99.90
19206;DHT22;59358;52.134;5.596;2023-05-10T04:45:23;13.00;99.90
19206;DHT22;59358;52.134;5.596;2023-05-10T04:47:50;13.00;99.90
19206;DHT22;59358;52.134;5.596;2023-05-10T04:50:16;13.10;99.90
19206;DHT22;59358;52.134;5.596;2023-05-10T04:52:45;13.20;99.90
19206;DHT22;59358;52.134;5.596;2023-05-10T04:55:12;13.10;99.90
19206;DHT22;59358;52.134;5.596;2023-05-10T04:57:39;13.10;99.90
19206;DHT22;59358;52.134;5.596;2023-05-10T05:00:07;13.10;99.90
19206;DHT22;59358;52.134;5.596;2023-05-10T05:02:33;13.10;99.90
19206;DHT22;59358;52.134;5.596;2023-05-10T05:05:00;13.10;99.90
19206;DHT22;59358;52.134;5.596;2023-05-10T05:07:27;13.20;99.90
19206;DHT22;59358;52.134;5.596;2023-05-10T05:09:55;13.20;99.90
19206;DHT22;59358;52.134;5.596;2023-05-10T05:12:22;13.20;99.90
19206;DHT22;59358;52.134;5.596;2023-05-10T05:14:49;13.30;99.90
19206;DHT22;59358;52.134;5.596;2023-05-10T05:17:15;13.30;99.90
19206;DHT22;59358;52.134;5.596;2023-05-10T05:19:42;13.30;99.90
19206;DHT22;59358;52.134;5.596;2023-05-10T05:22:09;13.20;99.90
19206;DHT22;59358;52.134;5.596;2023-05-10T05:24:36;13.20;99.90
19206;DHT22;59358;52.134;5.596;2023-05-10T05:27:05;13.40;99.90
19206;DHT22;59358;52.134;5.596;2023-05-10T05:29:32;13.40;99.90
19206;DHT22;59358;52.134;5.596;2023-05-10T05:31:59;13.40;99.90
19206;DHT22;59358;52.134;5.596;2023-05-10T05:34:26;13.40;99.90
19206;DHT22;59358;52.134;5.596;2023-05-10T05:36:53;13.40;99.90
19206;DHT22;59358;52.134;5.596;2023-05-10T05:39:20;13.30;99.90
19206;DHT22;59358;52.134;5.596;2023-05-10T05:41:47;13.30;99.90
19206;DHT22;59358;52.134;5.596;2023-05-10T05:44:15;13.30;99.90
19206;DHT22;59358;52.134;5.596;2023-05-10T05:46:42;13.30;99.90
19206;DHT22;59358;52.134;5.596;2023-05-10T05:49:09;13.30;99.90
19206;DHT22;59358;52.134;5.596;2023-05-10T05:51:36;13.30;99.90
19206;DHT22;59358;52.134;5.596;2023-05-10T05:54:03;13.20;99.90
19206;DHT22;59358;52.134;5.596;2023-05-10T05:56:30;13.20;99.90
19206;DHT22;59358;52.134;5.596;2023-05-10T05:58:56;13.30;99.90
19206;DHT22;59358;52.134;5.596;2023-05-10T06:01:25;13.30;99.90
19206;DHT22;59358;52.134;5.596;2023-05-10T06:03:52;13.40;99.90
19206;DHT22;59358;52.134;5.596;2023-05-10T06:06:19;13.40;99.90
19206;DHT22;59358;52.134;5.596;2023-05-10T06:08:46;13.50;99.90
19206;DHT22;59358;52.134;5.596;2023-05-10T06:11:12;13.50;99.90
19206;DHT22;59358;52.134;5.596;2023-05-10T06:13:39;13.40;99.90
19206;DHT22;59358;52.134;5.596;2023-05-10T06:16:07;13.40;99.90
19206;DHT22;59358;52.134;5.596;2023-05-10T06:18:35;13.40;99.90
19206;DHT22;59358;52.134;5.596;2023-05-10T06:21:02;13.40;99.90
19206;DHT22;59358;52.134;5.596;2023-05-10T06:23:29;13.40;99.90
19206;DHT22;59358;52.134;5.596;2023-05-10T06:25:56;13.30;99.90
19206;DHT22;59358;52.134;5.596;2023-05-10T06:28:23;13.30;99.90
19206;DHT22;59358;52.134;5.596;2023-05-10T06:30:49;13.30;99.90
19206;DHT22;59358;52.134;5.596;2023-05-10T06:33:16;13.20;99.90
19206;DHT22;59358;52.134;5.596;2023-05-10T06:35:44;13.30;99.90
19206;DHT22;59358;52.134;5.596;2023-05-10T06:38:11;13.40;99.90
19206;DHT22;59358;52.134;5.596;2023-05-10T06:40:41;13.30;99.90
19206;DHT22;59358;52.134;5.596;2023-05-10T06:43:08;13.30;99.90
19206;DHT22;59358;52.134;5.596;2023-05-10T06:45:35;13.30;99.90
19206;DHT22;59358;52.134;5.596;2023-05-10T06:48:02;13.50;99.90
19206;DHT22;59358;52.134;5.596;2023-05-10T06:50:29;13.50;99.90
19206;DHT22;59358;52.134;5.596;2023-05-10T06:52:57;13.50;99.90
19206;DHT22;59358;52.134;5.596;2023-05-10T06:55:24;13.60;99.90
19206;DHT22;59358;52.134;5.596;2023-05-10T06:57:50;13.90;99.90
19206;DHT22;59358;52.134;5.596;2023-05-10T07:00:18;14.10;99.90
19206;DHT22;59358;52.134;5.596;2023-05-10T07:02:45;14.30;99.90
19206;DHT22;59358;52.134;5.596;2023-05-10T07:05:12;14.40;99.90
19206;DHT22;59358;52.134;5.596;2023-05-10T07:07:39;14.20;99.90
19206;DHT22;59358;52.134;5.596;2023-05-10T07:10:08;14.00;99.90
19206;DHT22;59358;52.134;5.596;2023-05-10T07:12:35;14.00;99.90
19206;DHT22;59358;52.134;5.596;2023-05-10T07:15:02;14.00;99.90
19206;DHT22;59358;52.134;5.596;2023-05-10T07:17:29;13.80;99.90
19206;DHT22;59358;52.134;5.596;2023-05-10T07:19:56;13.80;99.90
19206;DHT22;59358;52.134;5.596;2023-05-10T07:22:23;13.90;99.90
19206;DHT22;59358;52.134;5.596;2023-05-10T07:24:50;14.20;99.90
19206;DHT22;59358;52.134;5.596;2023-05-10T07:27:18;14.30;99.90
19206;DHT22;59358;52.134;5.596;2023-05-10T07:29:45;14.40;99.90
19206;DHT22;59358;52.134;5.596;2023-05-10T07:32:12;14.50;99.90
19206;DHT22;59358;52.134;5.596;2023-05-10T07:34:39;14.40;99.90
19206;DHT22;59358;52.134;5.596;2023-05-10T07:37:05;14.30;99.90
19206;DHT22;59358;52.134;5.596;2023-05-10T07:39:32;14.50;99.90
19206;DHT22;59358;52.134;5.596;2023-05-10T07:41:59;14.70;99.90
19206;DHT22;59358;52.134;5.596;2023-05-10T07:44:27;14.70;99.90
19206;DHT22;59358;52.134;5.596;2023-05-10T07:46:54;14.80;99.90
19206;DHT22;59358;52.134;5.596;2023-05-10T07:49:21;14.70;99.90
19206;DHT22;59358;52.134;5.596;2023-05-10T07:51:49;14.60;99.90
19206;DHT22;59358;52.134;5.596;2023-05-10T07:54:16;14.40;99.90
19206;DHT22;59358;52.134;5.596;2023-05-10T07:56:43;14.50;99.90
19206;DHT22;59358;52.134;5.596;2023-05-10T07:59:15;14.30;99.90
19206;DHT22;59358;52.134;5.596;2023-05-10T08:01:43;14.30;99.90
19206;DHT22;59358;52.134;5.596;2023-05-10T08:04:10;14.30;99.90
19206;DHT22;59358;52.134;5.596;2023-05-10T08:06:38;14.20;99.90
19206;DHT22;59358;52.134;5.596;2023-05-10T08:09:04;14.10;99.90
19206;DHT22;59358;52.134;5.596;2023-05-10T08:11:31;14.10;99.90
19206;DHT22;59358;52.134;5.596;2023-05-10T08:13:58;14.00;99.90
19206;DHT22;59358;52.134;5.596;2023-05-10T08:16:25;14.10;99.90
19206;DHT22;59358;52.134;5.596;2023-05-10T08:18:53;14.10;99.90
19206;DHT22;59358;52.134;5.596;2023-05-10T08:21:20;14.30;99.90
19206;DHT22;59358;52.134;5.596;2023-05-10T08:23:47;14.40;99.90
19206;DHT22;59358;52.134;5.596;2023-05-10T08:26:14;14.50;99.90
19206;DHT22;59358;52.134;5.596;2023-05-10T08:28:41;14.70;99.90
19206;DHT22;59358;52.134;5.596;2023-05-10T08:31:08;14.70;99.90
19206;DHT22;59358;52.134;5.596;2023-05-10T08:33:34;15.00;99.90
19206;DHT22;59358;52.134;5.596;2023-05-10T08:36:03;14.90;99.90
19206;DHT22;59358;52.134;5.596;2023-05-10T08:38:30;14.80;99.90
19206;DHT22;59358;52.134;5.596;2023-05-10T08:40:57;15.00;99.90
19206;DHT22;59358;52.134;5.596;2023-05-10T08:43:27;15.10;99.90
19206;DHT22;59358;52.134;5.596;2023-05-10T08:45:55;15.10;99.90
19206;DHT22;59358;52.134;5.596;2023-05-10T08:48:23;15.30;99.90
19206;DHT22;59358;52.134;5.596;2023-05-10T08:50:53;15.50;99.90
19206;DHT22;59358;52.134;5.596;2023-05-10T08:53:24;15.40;99.90
19206;DHT22;59358;52.134;5.596;2023-05-10T08:55:52;15.50;99.90
19206;DHT22;59358;52.134;5.596;2023-05-10T08:58:19;15.50;99.90
19206;DHT22;59358;52.134;5.596;2023-05-10T09:00:48;15.40;99.90
19206;DHT22;59358;52.134;5.596;2023-05-10T09:03:15;15.00;99.90
19206;DHT22;59358;52.134;5.596;2023-05-10T09:05:42;14.90;99.90
19206;DHT22;59358;52.134;5.596;2023-05-10T09:08:10;14.90;99.90
19206;DHT22;59358;52.134;5.596;2023-05-10T09:10:40;15.00;99.90
19206;DHT22;59358;52.134;5.596;2023-05-10T09:13:10;14.70;99.90
19206;DHT22;59358;52.134;5.596;2023-05-10T09:15:37;14.60;99.90
19206;DHT22;59358;52.134;5.596;2023-05-10T09:18:04;14.60;99.90
19206;DHT22;59358;52.134;5.596;2023-05-10T09:20:31;14.60;99.90
19206;DHT22;59358;52.134;5.596;2023-05-10T09:22:58;14.60;99.90
19206;DHT22;59358;52.134;5.596;2023-05-10T09:25:24;14.60;99.90
19206;DHT22;59358;52.134;5.596;2023-05-10T09:27:53;14.70;99.90
19206;DHT22;59358;52.134;5.596;2023-05-10T09:30:24;14.80;99.90
19206;DHT22;59358;52.134;5.596;2023-05-10T09:32:52;15.00;99.90
19206;DHT22;59358;52.134;5.596;2023-05-10T09:35:20;15.10;99.90
19206;DHT22;59358;52.134;5.596;2023-05-10T09:37:51;15.40;99.90
19206;DHT22;59358;52.134;5.596;2023-05-10T09:40:20;15.60;99.90
19206;DHT22;59358;52.134;5.596;2023-05-10T09:42:56;16.10;99.90
19206;DHT22;59358;52.134;5.596;2023-05-10T09:45:25;16.10;99.90
19206;DHT22;59358;52.134;5.596;2023-05-10T09:47:53;16.50;99.90
19206;DHT22;59358;52.134;5.596;2023-05-10T09:50:20;16.90;99.90
19206;DHT22;59358;52.134;5.596;2023-05-10T09:52:49;17.20;99.90
19206;DHT22;59358;52.134;5.596;2023-05-10T09:55:17;17.70;99.90
19206;DHT22;59358;52.134;5.596;2023-05-10T09:57:45;17.80;99.90
19206;DHT22;59358;52.134;5.596;2023-05-10T10:00:18;17.70;99.90
19206;DHT22;59358;52.134;5.596;2023-05-10T10:02:47;17.70;99.90
19206;DHT22;59358;52.134;5.596;2023-05-10T10:05:14;18.10;99.90
19206;DHT22;59358;52.134;5.596;2023-05-10T10:07:41;18.30;99.90
19206;DHT22;59358;52.134;5.596;2023-05-10T10:10:09;18.00;99.90
19206;DHT22;59358;52.134;5.596;2023-05-10T10:12:39;18.40;99.90
19206;DHT22;59358;52.134;5.596;2023-05-10T10:15:07;18.60;99.90
19206;DHT22;59358;52.134;5.596;2023-05-10T10:17:36;18.70;99.90
19206;DHT22;59358;52.134;5.596;2023-05-10T10:20:05;18.70;99.90
19206;DHT22;59358;52.134;5.596;2023-05-10T10:22:32;18.90;99.90
19206;DHT22;59358;52.134;5.596;2023-05-10T10:24:59;19.40;99.90
19206;DHT22;59358;52.134;5.596;2023-05-10T10:27:33;19.70;99.90
19206;DHT22;59358;52.134;5.596;2023-05-10T10:30:10;19.50;99.90
19206;DHT22;59358;52.134;5.596;2023-05-10T10:32:59;19.20;99.90
19206;DHT22;59358;52.134;5.596;2023-05-10T10:35:30;18.90;99.90
19206;DHT22;59358;52.134;5.596;2023-05-10T10:37:57;18.70;99.90
19206;DHT22;59358;52.134;5.596;2023-05-10T10:40:26;18.90;99.90
19206;DHT22;59358;52.134;5.596;2023-05-10T10:42:53;19.30;99.90
19206;DHT22;59358;52.134;5.596;2023-05-10T10:45:21;19.10;99.90
19206;DHT22;59358;52.134;5.596;2023-05-10T10:47:54;19.00;99.90
19206;DHT22;59358;52.134;5.596;2023-05-10T10:50:44;18.90;99.90
19206;DHT22;59358;52.134;5.596;2023-05-10T10:53:12;18.70;99.90
19206;DHT22;59358;52.134;5.596;2023-05-10T10:55:46;18.40;99.90
19206;DHT22;59358;52.134;5.596;2023-05-10T10:58:28;18.20;99.90
19206;DHT22;59358;52.134;5.596;2023-05-10T11:01:10;18.50;99.90
19206;DHT22;59358;52.134;5.596;2023-05-10T11:03:38;18.80;99.90
19206;DHT22;59358;52.134;5.596;2023-05-10T11:06:05;18.70;99.90
19206;DHT22;59358;52.134;5.596;2023-05-10T11:08:34;18.20;99.90
19206;DHT22;59358;52.134;5.596;2023-05-10T11:11:06;18.20;99.90
19206;DHT22;59358;52.134;5.596;2023-05-10T11:13:34;18.30;99.90
19206;DHT22;59358;52.134;5.596;2023-05-10T11:16:12;18.10;99.90
19206;DHT22;59358;52.134;5.596;2023-05-10T11:18:40;18.20;99.90
19206;DHT22;59358;52.134;5.596;2023-05-10T11:21:09;17.70;99.90
19206;DHT22;59358;52.134;5.596;2023-05-10T11:23:48;17.60;99.90
19206;DHT22;59358;52.134;5.596;2023-05-10T11:26:16;17.60;99.90
19206;DHT22;59358;52.134;5.596;2023-05-10T11:28:43;17.50;99.90
19206;DHT22;59358;52.134;5.596;2023-05-10T11:31:12;17.80;99.90
19206;DHT22;59358;52.134;5.596;2023-05-10T11:33:44;18.40;99.90
19206;DHT22;59358;52.134;5.596;2023-05-10T11:36:12;18.80;99.90
19206;DHT22;59358;52.134;5.596;2023-05-10T11:38:39;19.20;99.90
19206;DHT22;59358;52.134;5.596;2023-05-10T11:41:08;19.50;99.90
19206;DHT22;59358;52.134;5.596;2023-05-10T11:43:35;19.50;99.90
19206;DHT22;59358;52.134;5.596;2023-05-10T11:46:04;19.50;99.90
19206;DHT22;59358;52.134;5.596;2023-05-10T11:48:31;19.10;99.90
19206;DHT22;59358;52.134;5.596;2023-05-10T11:51:00;19.30;99.90
19206;DHT22;59358;52.134;5.596;2023-05-10T11:53:31;19.00;99.90
19206;DHT22;59358;52.134;5.596;2023-05-10T11:56:03;18.80;99.90
19206;DHT22;59358;52.134;5.596;2023-05-10T11:58:31;18.50;99.90
19206;DHT22;59358;52.134;5.596;2023-05-10T12:00:58;18.40;99.90
19206;DHT22;59358;52.134;5.596;2023-05-10T12:03:25;18.50;99.90
19206;DHT22;59358;52.134;5.596;2023-05-10T12:05:52;18.40;99.90
19206;DHT22;59358;52.134;5.596;2023-05-10T12:08:22;18.80;99.90
19206;DHT22;59358;52.134;5.596;2023-05-10T12:10:49;19.00;99.90
19206;DHT22;59358;52.134;5.596;2023-05-10T12:13:17;19.10;99.90
19206;DHT22;59358;52.134;5.596;2023-05-10T12:15:43;19.60;99.90
19206;DHT22;59358;52.134;5.596;2023-05-10T12:18:11;20.30;99.90
19206;DHT22;59358;52.134;5.596;2023-05-10T12:20:38;20.30;99.90
19206;DHT22;59358;52.134;5.596;2023-05-10T12:23:07;20.50;99.90
19206;DHT22;59358;52.134;5.596;2023-05-10T12:25:37;20.30;99.90
19206;DHT22;59358;52.134;5.596;2023-05-10T12:28:05;20.10;99.90
19206;DHT22;59358;52.134;5.596;2023-05-10T12:30:34;20.10;99.90
19206;DHT22;59358;52.134;5.596;2023-05-10T12:33:01;19.80;99.90
19206;DHT22;59358;52.134;5.596;2023-05-10T12:35:31;19.40;99.90
19206;DHT22;59358;52.134;5.596;2023-05-10T12:37:59;19.90;99.90
19206;DHT22;59358;52.134;5.596;2023-05-10T12:40:25;20.50;99.90
19206;DHT22;59358;52.134;5.596;2023-05-10T12:42:53;20.10;99.90
19206;DHT22;59358;52.134;5.596;2023-05-10T12:45:20;20.30;99.90
19206;DHT22;59358;52.134;5.596;2023-05-10T12:47:48;19.90;99.90
19206;DHT22;59358;52.134;5.596;2023-05-10T12:50:14;19.80;99.90
19206;DHT22;59358;52.134;5.596;2023-05-10T12:52:41;20.40;99.90
19206;DHT22;59358;52.134;5.596;2023-05-10T12:55:08;20.70;99.90
19206;DHT22;59358;52.134;5.596;2023-05-10T12:57:35;20.80;99.90
19206;DHT22;59358;52.134;5.596;2023-05-10T13:00:04;21.00;99.90
19206;DHT22;59358;52.134;5.596;2023-05-10T13:02:31;21.00;99.90
19206;DHT22;59358;52.134;5.596;2023-05-10T13:04:58;21.00;99.90
19206;DHT22;59358;52.134;5.596;2023-05-10T13:07:25;21.50;99.90
19206;DHT22;59358;52.134;5.596;2023-05-10T13:09:52;21.80;99.90
19206;DHT22;59358;52.134;5.596;2023-05-10T13:12:19;22.10;99.90
19206;DHT22;59358;52.134;5.596;2023-05-10T13:14:46;22.20;99.90
19206;DHT22;59358;52.134;5.596;2023-05-10T13:17:14;22.20;99.90
19206;DHT22;59358;52.134;5.596;2023-05-10T13:19:40;22.30;99.90
19206;DHT22;59358;52.134;5.596;2023-05-10T13:22:07;22.10;99.90
19206;DHT22;59358;52.134;5.596;2023-05-10T13:24:34;22.00;99.90
19206;DHT22;59358;52.134;5.596;2023-05-10T13:27:01;21.70;99.90
19206;DHT22;59358;52.134;5.596;2023-05-10T13:29:27;21.30;99.90
19206;DHT22;59358;52.134;5.596;2023-05-10T13:31:54;21.10;99.90
19206;DHT22;59358;52.134;5.596;2023-05-10T13:34:22;20.70;99.90
19206;DHT22;59358;52.134;5.596;2023-05-10T13:36:49;20.50;99.90
19206;DHT22;59358;52.134;5.596;2023-05-10T13:39:17;20.30;99.90
19206;DHT22;59358;52.134;5.596;2023-05-10T13:41:43;20.00;99.90
19206;DHT22;59358;52.134;5.596;2023-05-10T13:44:12;19.90;99.90
19206;DHT22;59358;52.134;5.596;2023-05-10T13:46:39;19.80;99.90
19206;DHT22;59358;52.134;5.596;2023-05-10T13:49:06;19.60;99.90
19206;DHT22;59358;52.134;5.596;2023-05-10T13:51:35;18.70;99.90
19206;DHT22;59358;52.134;5.596;2023-05-10T13:54:02;17.60;99.90
19206;DHT22;59358;52.134;5.596;2023-05-10T13:56:28;17.10;99.90
19206;DHT22;59358;52.134;5.596;2023-05-10T13:58:56;16.60;99.90
19206;DHT22;59358;52.134;5.596;2023-05-10T14:01:23;16.40;99.90
19206;DHT22;59358;52.134;5.596;2023-05-10T14:03:50;16.30;99.90
19206;DHT22;59358;52.134;5.596;2023-05-10T14:06:17;16.00;99.90
19206;DHT22;59358;52.134;5.596;2023-05-10T14:08:45;15.90;99.90
19206;DHT22;59358;52.134;5.596;2023-05-10T14:11:12;15.70;99.90
19206;DHT22;59358;52.134;5.596;2023-05-10T14:13:39;15.50;99.90
19206;DHT22;59358;52.134;5.596;2023-05-10T14:16:06;15.20;99.90
19206;DHT22;59358;52.134;5.596;2023-05-10T14:18:33;14.90;99.90
19206;DHT22;59358;52.134;5.596;2023-05-10T14:21:01;14.60;99.90
19206;DHT22;59358;52.134;5.596;2023-05-10T14:23:28;14.60;99.90
19206;DHT22;59358;52.134;5.596;2023-05-10T14:25:56;14.40;99.90
19206;DHT22;59358;52.134;5.596;2023-05-10T14:28:23;14.40;99.90
19206;DHT22;59358;52.134;5.596;2023-05-10T14:30:51;14.30;99.90
19206;DHT22;59358;52.134;5.596;2023-05-10T14:33:17;14.10;99.90
19206;DHT22;59358;52.134;5.596;2023-05-10T14:35:44;13.90;99.90
19206;DHT22;59358;52.134;5.596;2023-05-10T14:38:12;13.90;99.90
19206;DHT22;59358;52.134;5.596;2023-05-10T14:40:38;13.80;99.90
19206;DHT22;59358;52.134;5.596;2023-05-10T14:43:07;13.80;99.90
19206;DHT22;59358;52.134;5.596;2023-05-10T14:45:33;13.90;99.90
19206;DHT22;59358;52.134;5.596;2023-05-10T14:48:00;13.90;99.90
19206;DHT22;59358;52.134;5.596;2023-05-10T14:50:30;13.90;99.90
19206;DHT22;59358;52.134;5.596;2023-05-10T14:52:56;13.90;99.90
19206;DHT22;59358;52.134;5.596;2023-05-10T14:55:23;13.80;99.90
19206;DHT22;59358;52.134;5.596;2023-05-10T14:57:50;13.80;99.90
19206;DHT22;59358;52.134;5.596;2023-05-10T15:00:19;13.90;99.90
19206;DHT22;59358;52.134;5.596;2023-05-10T15:02:46;13.80;99.90
19206;DHT22;59358;52.134;5.596;2023-05-10T15:05:13;13.80;99.90
19206;DHT22;59358;52.134;5.596;2023-05-10T15:07:40;13.80;99.90
19206;DHT22;59358;52.134;5.596;2023-05-10T15:10:09;13.80;99.90
19206;DHT22;59358;52.134;5.596;2023-05-10T15:12:36;13.70;99.90
19206;DHT22;59358;52.134;5.596;2023-05-10T15:15:03;13.70;99.90
19206;DHT22;59358;52.134;5.596;2023-05-10T15:17:31;13.70;99.90
19206;DHT22;59358;52.134;5.596;2023-05-10T15:19:58;13.70;99.90
19206;DHT22;59358;52.134;5.596;2023-05-10T15:22:25;13.70;99.90
19206;DHT22;59358;52.134;5.596;2023-05-10T15:24:53;13.70;99.90
19206;DHT22;59358;52.134;5.596;2023-05-10T15:27:20;13.80;99.90
19206;DHT22;59358;52.134;5.596;2023-05-10T15:29:47;14.00;99.90
19206;DHT22;59358;52.134;5.596;2023-05-10T15:32:14;14.10;99.90
19206;DHT22;59358;52.134;5.596;2023-05-10T15:34:42;14.20;99.90
19206;DHT22;59358;52.134;5.596;2023-05-10T15:37:08;14.30;99.90
19206;DHT22;59358;52.134;5.596;2023-05-10T15:39:35;14.30;99.90
19206;DHT22;59358;52.134;5.596;2023-05-10T15:42:02;14.60;99.90